Winchester, Canada
Current Conditions -  °F | °C
As of 3:53 AM on Friday 24 Oct 2014 (Local Time) from KMSS Reporting Station
Overcast Overcast  
Wind Chill: 46°   Ceiling: 4400
Heat Index: 46°   Visibility: 10mi
Dew Point: 40°   Wind: 3mph
Humidity: 79%   Direction: 340°NNW
Pressure: 29.93"   Gusts: NA
Location:  45.05°N, 75.3°W
Report Text: KMSS 240753Z AUTO 34003KT 10SM BKN044 BKN050 OVC075 08/04 A2993 RMK AO2 SLP139 T00780044
Loading
Personal Weather Stations






























Interactive Weather Map
Tropical Storm Tracking
New forecast layout! Learn more

10-Day Weather Forecast

Advertisements
Track Severe Weather on mobile